Startpagina
METAR-TAF:

METAR-TAF

Vliegvelden :

Tongatapu, Tonga

breedte: 21-14S, lengte: 175-09W, hoogte: 38 m

Actueel weer

Dit bericht is 33 minuten geleden gemaakt, om 02:00 UTC
Wind 9 kt uit het westzuidwesten
Temperatuur 27°C
Vochtigheid 66%
Druk 1007 hPa
Zicht 10 km of meer
Verspreide wolken op 1800 ft, Stapelwolken.

METAR: NFTF 180200Z 24009KT 9999 SCT018TCU 27/20 Q1007

Tijdstip: 16:33 (02:33 UTC)

Verwachting

Dit bericht is 3 uur en het 31 minuten geleden gemaakt, om 23:02 UTC
Verwachting geldig van 18 om 00 UTC tot 18 om 24 UTC
Wind 6 kt uit het noordwesten
Zicht 10 km of meer
Verspreide wolken op 900 ft
Verspreide wolken op 1600 ft
lichte regenbuien

TAF: NFTF 172302Z 1800/1824 32006KT 9999 -SHRA SCT009 SCT016

Waarnemingen en weersverwachtingen van meer dan 4000 vliegvelden (METAR en TAF).

De beschikbare stations zijn de gele en rode punten op de kaart.

Ga met uw muis naar het station om de naam te zien.

Klik dan om waarnemingen en weersverwachtingen te zien.

kaart wijzigen: klik op de groene knoppen met een zwart kruis om in te zoomen, op de groene knop met een streepje om uit te zoomen of op de groene pijlen voor aangrenzende kaarten.


METAR-TAF: